createdAt,value
2018-05-06T00:02:15.413Z,15.27
2018-05-06T00:04:43.693Z,13.30
2018-05-06T00:07:11.973Z,13.80
2018-05-06T00:09:40.250Z,19.27
2018-05-06T00:12:08.525Z,11.83
2018-05-06T00:14:36.809Z,14.57
2018-05-06T00:17:05.077Z,12.80
2018-05-06T00:19:33.362Z,10.80
2018-05-06T00:22:01.640Z,14.33
2018-05-06T00:24:29.921Z,13.27
2018-05-06T00:26:58.197Z,11.20
2018-05-06T00:29:26.485Z,16.37
2018-05-06T00:31:54.767Z,14.97
2018-05-06T00:34:23.038Z,14.40
2018-05-06T00:36:51.318Z,12.13
2018-05-06T00:39:19.652Z,13.73
2018-05-06T00:41:47.898Z,12.70
2018-05-06T00:44:16.169Z,12.63
2018-05-06T00:46:44.450Z,13.30
2018-05-06T00:49:12.723Z,12.77
2018-05-06T00:51:41.002Z,10.53
2018-05-06T00:57:13.961Z,15.57
2018-05-06T00:59:42.233Z,13.07
2018-05-06T01:02:10.517Z,10.90
2018-05-06T01:04:38.788Z,11.63
2018-05-06T01:07:07.061Z,11.53
2018-05-06T01:09:35.342Z,8.37
2018-05-06T01:12:03.609Z,6.83
2018-05-06T01:14:31.885Z,9.73
2018-05-06T01:17:00.154Z,9.20
2018-05-06T01:19:28.462Z,11.57
2018-05-06T01:21:56.733Z,11.20
2018-05-06T01:24:25.273Z,8.07
2018-05-06T01:26:53.539Z,8.83
2018-05-06T01:29:21.805Z,8.20
2018-05-06T01:31:50.078Z,8.67
2018-05-06T01:34:18.351Z,8.23
2018-05-06T01:36:46.621Z,11.33
2018-05-06T01:39:14.889Z,9.80
2018-05-06T01:41:43.166Z,9.13
2018-05-06T01:44:11.433Z,8.97
2018-05-06T01:46:39.710Z,6.60
2018-05-06T01:49:07.973Z,9.63
2018-05-06T01:51:36.273Z,7.30
2018-05-06T01:54:04.542Z,10.60
2018-05-06T01:56:32.821Z,6.63
2018-05-06T01:59:01.093Z,7.23
2018-05-06T02:01:29.370Z,13.43
2018-05-06T02:03:57.650Z,10.60
2018-05-06T02:06:25.924Z,12.00
2018-05-06T02:08:54.207Z,10.70
2018-05-06T02:11:22.477Z,11.60
2018-05-06T02:13:50.761Z,7.47
2018-05-06T02:16:19.032Z,8.17
2018-05-06T02:18:47.289Z,10.93
2018-05-06T02:21:15.570Z,7.50
2018-05-06T02:23:43.839Z,11.57
2018-05-06T02:26:12.117Z,8.50
2018-05-06T02:28:40.388Z,12.10
2018-05-06T02:31:09.038Z,10.70
2018-05-06T02:33:37.265Z,9.73
2018-05-06T02:36:05.533Z,9.63
2018-05-06T02:38:33.810Z,7.67
2018-05-06T02:41:02.078Z,8.33
2018-05-06T02:43:30.350Z,7.23
2018-05-06T02:45:58.621Z,9.90
2018-05-06T02:48:26.903Z,9.77
2018-05-06T02:50:55.181Z,9.67
2018-05-06T02:53:23.457Z,7.07
2018-05-06T02:55:51.731Z,8.13
2018-05-06T02:58:20.005Z,9.90
2018-05-06T03:00:48.285Z,7.93
2018-05-06T03:03:16.594Z,8.00
2018-05-06T03:05:44.873Z,6.83
2018-05-06T03:08:13.139Z,7.17
2018-05-06T03:10:41.420Z,10.40
2018-05-06T03:13:09.686Z,8.37
2018-05-06T03:15:37.958Z,9.30
2018-05-06T03:18:06.241Z,6.63
2018-05-06T03:20:34.506Z,6.60
2018-05-06T03:23:02.781Z,8.47
2018-05-06T03:25:31.046Z,6.40
2018-05-06T03:27:59.322Z,5.90
2018-05-06T03:30:27.590Z,6.93
2018-05-06T03:32:55.889Z,10.97
2018-05-06T03:35:24.162Z,7.33
2018-05-06T03:37:52.429Z,6.17
2018-05-06T03:40:20.712Z,7.07
2018-05-06T03:42:48.978Z,10.37
2018-05-06T03:45:17.253Z,8.50
2018-05-06T03:47:45.521Z,7.70
2018-05-06T03:50:13.801Z,9.33
2018-05-06T03:52:42.068Z,6.47
2018-05-06T03:55:10.350Z,10.40
2018-05-06T03:57:50.445Z,9.00
2018-05-06T04:00:30.620Z,10.03
2018-05-06T04:02:58.841Z,8.20
2018-05-06T04:05:27.105Z,9.90
2018-05-06T04:07:55.385Z,5.50
2018-05-06T04:10:23.657Z,7.87
2018-05-06T04:12:51.927Z,9.27
2018-05-06T04:15:20.193Z,13.90
2018-05-06T04:17:48.525Z,9.20
2018-05-06T04:20:16.793Z,5.97
2018-05-06T04:22:45.078Z,4.77
2018-05-06T04:25:13.345Z,8.13
2018-05-06T04:27:41.605Z,6.27
2018-05-06T04:30:09.877Z,6.83
2018-05-06T04:32:38.145Z,8.53
2018-05-06T04:35:06.418Z,9.80
2018-05-06T04:37:34.685Z,8.40
2018-05-06T04:40:02.981Z,8.60
2018-05-06T04:42:31.245Z,9.27
2018-05-06T04:44:59.542Z,9.03
2018-05-06T04:47:27.813Z,8.17
2018-05-06T04:49:56.085Z,9.57
2018-05-06T04:52:24.358Z,6.37
2018-05-06T04:54:52.623Z,9.57
2018-05-06T04:57:20.897Z,6.07
2018-05-06T04:59:49.169Z,9.30
2018-05-06T05:02:17.466Z,7.97
2018-05-06T05:04:45.733Z,10.13
2018-05-06T05:07:14.014Z,7.93
2018-05-06T05:09:42.285Z,9.30
2018-05-06T05:12:10.557Z,9.73
2018-05-06T05:14:38.830Z,9.73
2018-05-06T05:17:07.122Z,7.73
2018-05-06T05:19:35.365Z,8.60
2018-05-06T05:22:03.638Z,8.57
2018-05-06T05:24:32.977Z,11.50
2018-05-06T05:27:01.249Z,10.57
2018-05-06T05:29:29.521Z,9.90
2018-05-06T05:31:57.798Z,8.23
2018-05-06T05:34:26.080Z,11.57
2018-05-06T05:36:54.349Z,10.47
2018-05-06T05:39:22.624Z,7.00
2018-05-06T05:41:50.900Z,8.57
2018-05-06T05:44:19.165Z,8.30
2018-05-06T05:46:47.446Z,6.77
2018-05-06T05:49:15.726Z,8.57
2018-05-06T05:51:43.993Z,8.43
2018-05-06T05:54:12.271Z,9.10
2018-05-06T05:56:40.546Z,8.37
2018-05-06T05:59:08.821Z,8.93
2018-05-06T06:01:37.089Z,8.77
2018-05-06T06:04:05.374Z,11.63
2018-05-06T06:06:33.648Z,9.43
2018-05-06T06:09:02.278Z,10.10
2018-05-06T06:11:30.553Z,13.10
2018-05-06T06:13:58.823Z,6.67
2018-05-06T06:16:27.098Z,6.37
2018-05-06T06:18:55.362Z,7.33
2018-05-06T06:21:23.641Z,8.87
2018-05-06T06:23:51.906Z,7.10
2018-05-06T06:26:20.177Z,7.27
2018-05-06T06:28:48.442Z,6.60
2018-05-06T06:31:16.720Z,7.97
2018-05-06T06:33:44.985Z,9.10
2018-05-06T06:36:13.250Z,6.90
2018-05-06T06:38:41.530Z,7.40
2018-05-06T06:41:09.799Z,6.43
2018-05-06T06:43:38.093Z,9.10
2018-05-06T06:46:06.362Z,10.13
2018-05-06T06:48:34.642Z,8.67
2018-05-06T06:51:02.906Z,9.03
2018-05-06T06:53:31.182Z,7.70
2018-05-06T06:55:59.454Z,6.00
2018-05-06T06:58:27.719Z,6.40
2018-05-06T07:00:55.997Z,7.13
2018-05-06T07:03:24.261Z,5.13
2018-05-06T07:05:52.547Z,5.63
2018-05-06T07:08:20.802Z,7.37
2018-05-06T07:10:49.076Z,7.27
2018-05-06T07:13:17.342Z,6.07
2018-05-06T07:15:45.617Z,8.33
2018-05-06T07:18:13.892Z,8.60
2018-05-06T07:20:42.153Z,5.83
2018-05-06T07:23:10.431Z,8.77
2018-05-06T07:25:38.697Z,6.90
2018-05-06T07:28:06.983Z,7.93
2018-05-06T07:30:35.246Z,7.77
2018-05-06T07:33:03.566Z,5.17
2018-05-06T07:35:31.837Z,3.53
2018-05-06T07:38:00.093Z,6.40
2018-05-06T07:40:28.372Z,5.47
2018-05-06T07:42:56.725Z,5.23
2018-05-06T07:45:25.002Z,4.60
2018-05-06T07:47:53.393Z,6.07
2018-05-06T07:50:21.681Z,5.40
2018-05-06T07:52:49.957Z,6.93
2018-05-06T07:55:18.237Z,5.30
2018-05-06T07:57:46.501Z,7.70
2018-05-06T08:00:14.781Z,3.90
2018-05-06T08:02:43.053Z,6.43
2018-05-06T08:05:11.331Z,4.33
2018-05-06T08:07:40.090Z,7.63
2018-05-06T08:10:08.373Z,3.70
2018-05-06T08:12:36.650Z,4.37
2018-05-06T08:15:06.036Z,6.90
2018-05-06T08:17:34.314Z,3.50
2018-05-06T08:20:02.572Z,6.00
2018-05-06T08:22:30.842Z,3.33
2018-05-06T08:24:59.110Z,4.77
2018-05-06T08:27:28.373Z,7.80
2018-05-06T08:29:56.665Z,5.23
2018-05-06T08:32:24.945Z,11.10
2018-05-06T08:34:53.247Z,3.13
2018-05-06T08:37:21.486Z,2.97
2018-05-06T08:39:50.363Z,4.80
2018-05-06T08:42:18.633Z,7.80
2018-05-06T08:44:46.905Z,3.23
2018-05-06T08:47:15.169Z,6.77
2018-05-06T08:49:43.445Z,3.63
2018-05-06T08:52:11.705Z,3.87
2018-05-06T08:54:39.986Z,3.20
2018-05-06T08:57:08.254Z,4.67
2018-05-06T08:59:36.557Z,4.93
2018-05-06T09:02:05.108Z,4.13
2018-05-06T09:04:33.337Z,3.47
2018-05-06T09:07:01.610Z,9.77
2018-05-06T09:09:29.874Z,6.63
2018-05-06T09:11:58.192Z,4.43
2018-05-06T09:14:26.415Z,6.87
2018-05-06T09:16:54.933Z,8.40
2018-05-06T09:19:23.203Z,4.30
2018-05-06T09:21:51.469Z,3.00
2018-05-06T09:24:19.749Z,4.67
2018-05-06T09:26:48.018Z,4.73
2018-05-06T09:29:16.293Z,4.70
2018-05-06T09:31:44.553Z,3.93
2018-05-06T09:34:12.829Z,6.40
2018-05-06T09:36:41.098Z,6.30
2018-05-06T09:39:09.374Z,5.07
2018-05-06T09:41:37.642Z,7.43
2018-05-06T09:44:05.909Z,8.23
2018-05-06T09:46:34.189Z,3.83
2018-05-06T09:49:02.454Z,3.67
2018-05-06T09:51:30.731Z,4.27
2018-05-06T09:53:58.997Z,3.70
2018-05-06T09:56:27.267Z,4.53
2018-05-06T09:58:55.559Z,2.90
2018-05-06T10:01:23.831Z,3.47
2018-05-06T10:03:52.134Z,5.07
2018-05-06T10:06:20.413Z,5.37
2018-05-06T10:08:48.701Z,3.23
2018-05-06T10:11:16.948Z,4.37
2018-05-06T10:13:45.225Z,5.10
2018-05-06T10:16:13.489Z,2.33
2018-05-06T10:18:41.766Z,4.70
2018-05-06T10:21:10.038Z,6.13
2018-05-06T10:23:38.313Z,3.17
2018-05-06T10:26:06.621Z,7.40
2018-05-06T10:28:34.861Z,5.97
2018-05-06T10:31:03.126Z,3.93
2018-05-06T10:33:31.393Z,4.33
2018-05-06T10:35:59.665Z,6.60
2018-05-06T10:38:28.020Z,3.47
2018-05-06T10:40:56.217Z,3.87
2018-05-06T10:43:24.486Z,5.83
2018-05-06T10:45:52.765Z,3.43
2018-05-06T10:48:21.025Z,2.47
2018-05-06T10:50:49.310Z,4.53
2018-05-06T10:53:17.574Z,2.80
2018-05-06T10:55:45.837Z,2.63
2018-05-06T10:58:14.110Z,2.17
2018-05-06T11:00:42.374Z,3.53
2018-05-06T11:03:10.646Z,4.13
2018-05-06T11:05:38.914Z,3.87
2018-05-06T11:08:07.193Z,1.83
2018-05-06T11:10:35.460Z,4.30
2018-05-06T11:13:03.745Z,3.00
2018-05-06T11:15:32.008Z,3.07
2018-05-06T11:18:00.274Z,3.67
2018-05-06T11:20:28.546Z,6.97
2018-05-06T11:22:56.805Z,3.07
2018-05-06T11:25:25.081Z,5.37
2018-05-06T11:27:53.345Z,4.70
2018-05-06T11:30:21.621Z,2.53
2018-05-06T11:32:49.891Z,1.80
2018-05-06T11:35:18.166Z,5.07
2018-05-06T11:37:46.429Z,3.67
2018-05-06T11:40:14.705Z,3.47
2018-05-06T11:42:42.977Z,5.93
2018-05-06T11:45:11.241Z,1.90
2018-05-06T11:47:39.520Z,3.87
2018-05-06T11:50:07.781Z,2.10
2018-05-06T11:52:36.070Z,2.67
2018-05-06T11:55:04.342Z,1.67
2018-05-06T11:57:32.611Z,5.33
2018-05-06T12:00:00.891Z,3.13
2018-05-06T12:02:29.159Z,3.67
2018-05-06T12:04:57.430Z,1.67
2018-05-06T12:07:25.693Z,2.57
2018-05-06T12:09:54.015Z,3.67
2018-05-06T12:12:22.242Z,5.27
2018-05-06T12:14:50.530Z,4.23
2018-05-06T12:17:18.798Z,3.50
2018-05-06T12:19:47.126Z,2.17
2018-05-06T12:22:15.401Z,2.00
2018-05-06T12:24:43.666Z,3.60
2018-05-06T12:27:11.941Z,2.40
2018-05-06T12:29:40.214Z,2.70
2018-05-06T12:32:08.485Z,1.47
2018-05-06T12:34:36.749Z,2.07
2018-05-06T12:37:05.033Z,2.43
2018-05-06T12:39:33.302Z,3.53
2018-05-06T12:42:01.597Z,1.60
2018-05-06T12:44:29.866Z,2.37
2018-05-06T12:46:58.139Z,2.03
2018-05-06T12:49:26.498Z,1.23
2018-05-06T12:51:54.681Z,2.13
2018-05-06T12:54:22.957Z,3.00
2018-05-06T12:56:51.238Z,1.90
2018-05-06T12:59:19.520Z,1.50
2018-05-06T13:01:47.785Z,3.17
2018-05-06T13:04:16.054Z,2.37
2018-05-06T13:06:44.330Z,3.80
2018-05-06T13:09:12.605Z,3.10
2018-05-06T13:11:40.889Z,1.23
2018-05-06T13:14:09.210Z,3.43
2018-05-06T13:16:37.425Z,1.70
2018-05-06T13:19:05.694Z,6.07
2018-05-06T13:21:33.966Z,4.00
2018-05-06T13:24:02.295Z,3.13
2018-05-06T13:26:30.513Z,1.37
2018-05-06T13:28:58.782Z,3.37
2018-05-06T13:31:27.059Z,5.53
2018-05-06T13:33:55.322Z,2.57
2018-05-06T13:36:23.602Z,2.60
2018-05-06T13:38:51.873Z,1.67
2018-05-06T13:41:20.149Z,2.13
2018-05-06T13:43:48.425Z,3.50
2018-05-06T13:46:16.693Z,1.13
2018-05-06T13:48:44.966Z,2.57
2018-05-06T13:51:13.234Z,2.03
2018-05-06T13:53:41.517Z,1.70
2018-05-06T13:56:09.781Z,3.23
2018-05-06T13:58:38.057Z,2.67
2018-05-06T14:01:06.399Z,1.63
2018-05-06T14:03:34.626Z,1.10
2018-05-06T14:06:02.902Z,2.50
2018-05-06T14:08:31.169Z,2.67
2018-05-06T14:10:59.442Z,2.00
2018-05-06T14:13:27.710Z,1.47
2018-05-06T14:15:56.003Z,2.63
2018-05-06T14:18:24.253Z,1.97
2018-05-06T14:20:52.531Z,2.07
2018-05-06T14:23:20.797Z,1.90
2018-05-06T14:25:49.070Z,3.70
2018-05-06T14:28:17.341Z,1.57
2018-05-06T14:30:45.606Z,1.30
2018-05-06T14:33:13.881Z,3.50
2018-05-06T14:35:42.153Z,7.00
2018-05-06T14:38:10.434Z,3.73
2018-05-06T14:40:38.721Z,2.20
2018-05-06T14:43:07.001Z,2.27
2018-05-06T14:45:35.263Z,2.10
2018-05-06T14:48:14.146Z,3.53
2018-05-06T14:50:42.418Z,5.07
2018-05-06T14:53:10.688Z,1.90
2018-05-06T14:55:38.977Z,6.27
2018-05-06T14:58:07.228Z,2.90
2018-05-06T15:00:35.497Z,1.57
2018-05-06T15:03:03.769Z,2.80
2018-05-06T15:05:32.051Z,1.20
2018-05-06T15:08:00.320Z,4.17
2018-05-06T15:10:28.637Z,1.67
2018-05-06T15:12:56.865Z,3.57
2018-05-06T15:15:25.135Z,1.43
2018-05-06T15:17:53.407Z,4.23
2018-05-06T15:20:21.669Z,3.23
2018-05-06T15:22:49.946Z,2.97
2018-05-06T15:25:18.213Z,1.33
2018-05-06T15:27:46.485Z,1.13
2018-05-06T15:30:14.750Z,2.17
2018-05-06T15:32:43.042Z,3.80
2018-05-06T15:35:11.305Z,3.67
2018-05-06T15:37:39.574Z,2.83
2018-05-06T15:40:07.858Z,2.30
2018-05-06T15:42:36.133Z,2.73
2018-05-06T15:45:04.425Z,2.80
2018-05-06T15:47:32.925Z,0.93
2018-05-06T15:50:01.213Z,3.40
2018-05-06T15:52:29.482Z,1.43
2018-05-06T15:54:57.757Z,2.83
2018-05-06T15:57:26.021Z,3.37
2018-05-06T15:59:54.289Z,2.43
2018-05-06T16:02:53.067Z,4.43
2018-05-06T16:05:21.321Z,1.53
2018-05-06T16:07:49.593Z,1.60
2018-05-06T16:10:17.870Z,2.60
2018-05-06T16:12:46.138Z,3.83
2018-05-06T16:15:14.433Z,2.70
2018-05-06T16:17:43.076Z,3.20
2018-05-06T16:20:11.321Z,1.90
2018-05-06T16:22:39.604Z,3.10
2018-05-06T16:25:07.881Z,2.27
2018-05-06T16:27:36.149Z,4.20
2018-05-06T16:30:04.426Z,2.20
2018-05-06T16:32:32.691Z,2.20
2018-05-06T16:35:00.985Z,1.90
2018-05-06T16:37:29.273Z,3.03
2018-05-06T16:39:57.551Z,4.57
2018-05-06T16:42:25.837Z,1.60
2018-05-06T16:44:54.106Z,1.80
2018-05-06T16:47:22.389Z,2.93
2018-05-06T16:49:50.662Z,3.07
2018-05-06T16:52:18.934Z,4.77
2018-05-06T16:54:47.206Z,1.67
2018-05-06T16:57:15.613Z,2.03
2018-05-06T16:59:43.813Z,1.73
2018-05-06T17:02:12.085Z,1.40
2018-05-06T17:04:40.358Z,2.90
2018-05-06T17:07:08.628Z,1.80
2018-05-06T17:09:36.901Z,2.80
2018-05-06T17:12:05.169Z,5.23
2018-05-06T17:14:33.468Z,2.93
2018-05-06T17:17:01.730Z,2.20
2018-05-06T17:19:30.001Z,3.53
2018-05-06T17:21:58.320Z,4.50
2018-05-06T17:24:26.545Z,1.27
2018-05-06T17:26:54.815Z,3.60
2018-05-06T17:29:23.090Z,3.13
2018-05-06T17:31:51.358Z,2.57
2018-05-06T17:34:19.641Z,2.00
2018-05-06T17:36:47.909Z,3.73
2018-05-06T17:39:16.202Z,3.73
2018-05-06T17:41:44.486Z,1.60
2018-05-06T17:44:12.756Z,5.03
2018-05-06T17:46:41.026Z,2.87
2018-05-06T17:49:09.297Z,17.60
2018-05-06T17:51:37.634Z,1.50
2018-05-06T17:54:05.878Z,2.70
2018-05-06T17:56:34.159Z,5.07
2018-05-06T17:59:02.426Z,2.40
2018-05-06T18:01:30.729Z,2.90
2018-05-06T18:03:58.994Z,1.53
2018-05-06T18:06:27.269Z,1.60
2018-05-06T18:08:55.544Z,2.30
2018-05-06T18:11:23.810Z,2.20
2018-05-06T18:13:52.094Z,2.67
2018-05-06T18:16:20.366Z,4.17
2018-05-06T18:18:48.653Z,2.80
2018-05-06T18:21:16.936Z,1.47
2018-05-06T18:23:45.222Z,3.23
2018-05-06T18:26:13.489Z,2.60
2018-05-06T18:28:41.774Z,4.87
2018-05-06T18:31:10.058Z,1.83
2018-05-06T18:33:38.331Z,4.10
2018-05-06T18:36:06.606Z,2.07
2018-05-06T18:38:34.874Z,5.30
2018-05-06T18:41:03.154Z,1.47
2018-05-06T18:43:31.421Z,2.27
2018-05-06T18:45:59.726Z,2.60
2018-05-06T18:48:27.997Z,3.40
2018-05-06T18:50:56.261Z,3.33
2018-05-06T18:53:24.541Z,5.53
2018-05-06T18:55:52.812Z,4.40
2018-05-06T18:58:21.089Z,2.00
2018-05-06T19:00:49.361Z,2.63
2018-05-06T19:03:17.641Z,2.50
2018-05-06T19:05:45.916Z,3.30
2018-05-06T19:08:14.206Z,2.33
2018-05-06T19:10:42.473Z,2.53
2018-05-06T19:13:10.738Z,1.50
2018-05-06T19:15:39.023Z,12.83
2018-05-06T19:18:07.299Z,7.53
2018-05-06T19:20:35.649Z,2.77
2018-05-06T19:23:03.914Z,3.70
2018-05-06T19:25:32.198Z,4.50
2018-05-06T19:28:00.466Z,4.20
2018-05-06T19:30:28.754Z,7.27
2018-05-06T19:32:57.044Z,3.73
2018-05-06T19:35:25.334Z,2.50
2018-05-06T19:37:53.691Z,1.97
2018-05-06T19:40:21.882Z,2.53
2018-05-06T19:42:50.177Z,1.90
2018-05-06T19:45:18.441Z,1.67
2018-05-06T19:47:46.721Z,3.93
2018-05-06T19:50:15.017Z,2.97
2018-05-06T19:52:43.286Z,1.83
2018-05-06T19:55:11.561Z,3.07
2018-05-06T19:57:39.829Z,2.63
2018-05-06T20:00:08.106Z,2.83
2018-05-06T20:02:36.373Z,2.17
2018-05-06T20:05:04.661Z,2.63
2018-05-06T20:07:32.933Z,5.00
2018-05-06T20:10:01.209Z,5.23
2018-05-06T20:12:29.487Z,3.03
2018-05-06T20:14:57.758Z,4.93
2018-05-06T20:17:26.030Z,3.37
2018-05-06T20:19:54.305Z,4.63
2018-05-06T20:22:22.579Z,3.37
2018-05-06T20:24:50.862Z,2.17
2018-05-06T20:27:19.129Z,4.20
2018-05-06T20:29:47.441Z,5.73
2018-05-06T20:32:15.723Z,2.70
2018-05-06T20:34:43.987Z,1.83
2018-05-06T20:37:12.268Z,2.40
2018-05-06T20:39:40.554Z,4.40
2018-05-06T20:42:08.838Z,2.17
2018-05-06T20:44:37.106Z,2.87
2018-05-06T20:47:05.393Z,5.97
2018-05-06T20:49:33.657Z,5.17
2018-05-06T20:52:01.971Z,2.33
2018-05-06T20:54:30.245Z,5.87
2018-05-06T20:56:58.617Z,4.20
2018-05-06T20:59:26.877Z,3.17
2018-05-06T21:01:55.157Z,4.13
2018-05-06T21:04:23.440Z,2.80
2018-05-06T21:06:51.722Z,5.57
2018-05-06T21:09:19.996Z,2.73
2018-05-06T21:11:48.295Z,5.50
2018-05-06T21:14:16.571Z,4.70
2018-05-06T21:16:44.841Z,4.33
2018-05-06T21:19:13.190Z,4.57
2018-05-06T21:21:41.386Z,2.80
2018-05-06T21:24:09.658Z,2.40
2018-05-06T21:26:37.925Z,4.80
2018-05-06T21:29:06.198Z,3.17
2018-05-06T21:31:34.469Z,3.57
2018-05-06T21:34:02.734Z,2.27
2018-05-06T21:36:31.022Z,1.90
2018-05-06T21:38:59.292Z,3.33
2018-05-06T21:41:27.561Z,2.37
2018-05-06T21:43:55.835Z,2.47
2018-05-06T21:46:24.106Z,2.60
2018-05-06T21:48:52.373Z,3.97
2018-05-06T21:51:20.739Z,3.17
2018-05-06T21:53:49.017Z,2.80
2018-05-06T21:56:17.292Z,3.47
2018-05-06T21:58:45.558Z,7.20
2018-05-06T22:01:20.795Z,4.60
2018-05-06T22:03:49.062Z,2.47
2018-05-06T22:06:17.334Z,4.23
2018-05-06T22:08:45.707Z,3.53
2018-05-06T22:11:13.994Z,4.50
2018-05-06T22:13:42.359Z,2.03
2018-05-06T22:16:10.625Z,6.00
2018-05-06T22:18:38.989Z,2.93
2018-05-06T22:21:10.294Z,3.27
2018-05-06T22:23:38.570Z,4.20
2018-05-06T22:26:06.873Z,1.90
2018-05-06T22:28:35.155Z,3.60
2018-05-06T22:31:03.417Z,7.73
2018-05-06T22:33:31.686Z,2.10
2018-05-06T22:35:59.961Z,2.13
2018-05-06T22:38:28.237Z,7.93
2018-05-06T22:40:56.522Z,3.63
2018-05-06T22:43:24.785Z,3.60
2018-05-06T22:45:53.068Z,3.73
2018-05-06T22:48:21.330Z,5.03
2018-05-06T22:50:49.598Z,2.50
2018-05-06T22:53:17.870Z,3.53
2018-05-06T22:55:46.146Z,5.33
2018-05-06T22:58:14.432Z,3.63
2018-05-06T23:00:42.703Z,3.40
2018-05-06T23:03:10.985Z,7.63
2018-05-06T23:05:39.357Z,2.13
2018-05-06T23:08:07.523Z,2.70
2018-05-06T23:10:35.802Z,5.33
2018-05-06T23:13:04.081Z,4.00
2018-05-06T23:15:32.366Z,6.07
2018-05-06T23:18:00.629Z,2.20
2018-05-06T23:20:28.920Z,3.07
2018-05-06T23:22:57.182Z,4.60
2018-05-06T23:25:25.446Z,2.60
2018-05-06T23:27:53.722Z,2.60
2018-05-06T23:30:21.990Z,3.50
2018-05-06T23:32:50.261Z,2.20
2018-05-06T23:35:18.529Z,3.10
2018-05-06T23:37:46.805Z,3.77
2018-05-06T23:40:15.069Z,3.33
2018-05-06T23:42:43.333Z,3.20
2018-05-06T23:45:11.614Z,2.80
2018-05-06T23:47:39.885Z,2.53
2018-05-06T23:50:08.158Z,3.17
2018-05-06T23:52:36.427Z,4.00
2018-05-06T23:55:04.722Z,4.57
2018-05-06T23:57:32.986Z,6.60
